sensor_id;sensor_type;location;lat;lon;timestamp;P1;durP1;ratioP1;P2;durP2;ratioP2
22064;SDS011;11197;53.110;8.468;2023-02-28T00:00:26;13.25;;;6.53;;
22064;SDS011;11197;53.110;8.468;2023-02-28T00:02:52;10.10;;;6.13;;
22064;SDS011;11197;53.110;8.468;2023-02-28T00:05:19;12.60;;;6.82;;
22064;SDS011;11197;53.110;8.468;2023-02-28T00:07:47;12.48;;;6.63;;
22064;SDS011;11197;53.110;8.468;2023-02-28T00:10:15;14.05;;;6.35;;
22064;SDS011;11197;53.110;8.468;2023-02-28T00:12:48;11.93;;;6.53;;
22064;SDS011;11197;53.110;8.468;2023-02-28T00:15:15;12.32;;;6.60;;
22064;SDS011;11197;53.110;8.468;2023-02-28T00:17:41;10.63;;;6.32;;
22064;SDS011;11197;53.110;8.468;2023-02-28T00:20:08;11.02;;;6.25;;
22064;SDS011;11197;53.110;8.468;2023-02-28T00:22:44;13.23;;;6.28;;
22064;SDS011;11197;53.110;8.468;2023-02-28T00:25:13;13.32;;;6.90;;
22064;SDS011;11197;53.110;8.468;2023-02-28T00:27:40;9.95;;;6.20;;
22064;SDS011;11197;53.110;8.468;2023-02-28T00:30:08;10.27;;;6.13;;
22064;SDS011;11197;53.110;8.468;2023-02-28T00:32:36;10.60;;;6.50;;
22064;SDS011;11197;53.110;8.468;2023-02-28T00:35:03;12.45;;;6.55;;
22064;SDS011;11197;53.110;8.468;2023-02-28T00:37:29;12.70;;;6.93;;
22064;SDS011;11197;53.110;8.468;2023-02-28T00:39:55;11.63;;;6.63;;
22064;SDS011;11197;53.110;8.468;2023-02-28T00:42:22;11.60;;;6.70;;
22064;SDS011;11197;53.110;8.468;2023-02-28T00:44:48;14.15;;;7.05;;
22064;SDS011;11197;53.110;8.468;2023-02-28T00:47:14;12.00;;;6.93;;
22064;SDS011;11197;53.110;8.468;2023-02-28T00:49:42;13.40;;;7.40;;
22064;SDS011;11197;53.110;8.468;2023-02-28T00:52:08;11.40;;;7.00;;
22064;SDS011;11197;53.110;8.468;2023-02-28T00:54:35;12.18;;;6.70;;
22064;SDS011;11197;53.110;8.468;2023-02-28T00:57:01;11.02;;;6.75;;
22064;SDS011;11197;53.110;8.468;2023-02-28T00:59:27;13.85;;;7.57;;
22064;SDS011;11197;53.110;8.468;2023-02-28T01:01:53;12.32;;;7.40;;
22064;SDS011;11197;53.110;8.468;2023-02-28T01:04:20;10.30;;;6.20;;
22064;SDS011;11197;53.110;8.468;2023-02-28T01:06:46;11.85;;;6.78;;
22064;SDS011;11197;53.110;8.468;2023-02-28T01:09:12;10.60;;;6.70;;
22064;SDS011;11197;53.110;8.468;2023-02-28T01:11:42;11.05;;;6.72;;
22064;SDS011;11197;53.110;8.468;2023-02-28T01:14:12;11.57;;;6.90;;
22064;SDS011;11197;53.110;8.468;2023-02-28T01:16:43;12.13;;;6.95;;
22064;SDS011;11197;53.110;8.468;2023-02-28T01:19:09;12.20;;;6.82;;
22064;SDS011;11197;53.110;8.468;2023-02-28T01:21:37;11.73;;;7.10;;
22064;SDS011;11197;53.110;8.468;2023-02-28T01:24:04;10.57;;;6.43;;
22064;SDS011;11197;53.110;8.468;2023-02-28T01:26:31;10.73;;;6.85;;
22064;SDS011;11197;53.110;8.468;2023-02-28T01:29:00;10.85;;;6.68;;
22064;SDS011;11197;53.110;8.468;2023-02-28T01:31:26;11.52;;;6.72;;
22064;SDS011;11197;53.110;8.468;2023-02-28T01:33:51;14.27;;;8.68;;
22064;SDS011;11197;53.110;8.468;2023-02-28T01:36:22;12.68;;;7.80;;
22064;SDS011;11197;53.110;8.468;2023-02-28T01:38:49;13.13;;;8.88;;
22064;SDS011;11197;53.110;8.468;2023-02-28T01:41:18;13.70;;;9.40;;
22064;SDS011;11197;53.110;8.468;2023-02-28T01:46:12;15.75;;;9.45;;
22064;SDS011;11197;53.110;8.468;2023-02-28T01:48:40;14.90;;;9.65;;
22064;SDS011;11197;53.110;8.468;2023-02-28T01:51:13;16.58;;;9.48;;
22064;SDS011;11197;53.110;8.468;2023-02-28T01:53:44;15.13;;;9.50;;
22064;SDS011;11197;53.110;8.468;2023-02-28T01:56:13;15.30;;;9.55;;
22064;SDS011;11197;53.110;8.468;2023-02-28T01:58:48;15.32;;;9.50;;
22064;SDS011;11197;53.110;8.468;2023-02-28T02:01:15;17.25;;;10.63;;
22064;SDS011;11197;53.110;8.468;2023-02-28T02:04:04;17.70;;;10.48;;
22064;SDS011;11197;53.110;8.468;2023-02-28T02:06:34;18.25;;;10.10;;
22064;SDS011;11197;53.110;8.468;2023-02-28T02:09:08;15.73;;;10.23;;
22064;SDS011;11197;53.110;8.468;2023-02-28T02:11:36;16.85;;;10.65;;
22064;SDS011;11197;53.110;8.468;2023-02-28T02:19:55;15.98;;;9.85;;
22064;SDS011;11197;53.110;8.468;2023-02-28T02:36:23;15.68;;;9.80;;
22064;SDS011;11197;53.110;8.468;2023-02-28T02:39:06;15.52;;;10.15;;
22064;SDS011;11197;53.110;8.468;2023-02-28T02:41:50;15.90;;;9.98;;
22064;SDS011;11197;53.110;8.468;2023-02-28T02:44:23;16.38;;;9.85;;
22064;SDS011;11197;53.110;8.468;2023-02-28T02:47:00;16.80;;;9.23;;
22064;SDS011;11197;53.110;8.468;2023-02-28T02:49:36;17.00;;;10.05;;
22064;SDS011;11197;53.110;8.468;2023-02-28T02:52:09;15.90;;;9.63;;
22064;SDS011;11197;53.110;8.468;2023-02-28T02:54:40;16.50;;;10.18;;
22064;SDS011;11197;53.110;8.468;2023-02-28T02:57:10;15.63;;;9.30;;
22064;SDS011;11197;53.110;8.468;2023-02-28T02:59:55;14.98;;;9.88;;
22064;SDS011;11197;53.110;8.468;2023-02-28T03:02:22;18.50;;;10.00;;
22064;SDS011;11197;53.110;8.468;2023-02-28T03:04:51;13.45;;;9.38;;
22064;SDS011;11197;53.110;8.468;2023-02-28T03:07:20;14.57;;;9.60;;
22064;SDS011;11197;53.110;8.468;2023-02-28T03:09:53;15.40;;;9.18;;
22064;SDS011;11197;53.110;8.468;2023-02-28T03:12:20;15.85;;;9.25;;
22064;SDS011;11197;53.110;8.468;2023-02-28T03:14:55;14.43;;;9.05;;
22064;SDS011;11197;53.110;8.468;2023-02-28T03:17:31;13.07;;;8.48;;
22064;SDS011;11197;53.110;8.468;2023-02-28T03:22:51;14.52;;;8.65;;
22064;SDS011;11197;53.110;8.468;2023-02-28T03:28:12;13.50;;;8.25;;
22064;SDS011;11197;53.110;8.468;2023-02-28T03:30:48;13.73;;;8.35;;
22064;SDS011;11197;53.110;8.468;2023-02-28T03:36:20;13.63;;;7.88;;
22064;SDS011;11197;53.110;8.468;2023-02-28T03:38:55;13.45;;;8.82;;
22064;SDS011;11197;53.110;8.468;2023-02-28T03:41:38;15.70;;;8.75;;
22064;SDS011;11197;53.110;8.468;2023-02-28T03:44:18;14.88;;;7.90;;
22064;SDS011;11197;53.110;8.468;2023-02-28T03:46:51;12.35;;;7.15;;
22064;SDS011;11197;53.110;8.468;2023-02-28T03:49:22;13.43;;;8.00;;
22064;SDS011;11197;53.110;8.468;2023-02-28T03:51:56;12.45;;;7.57;;
22064;SDS011;11197;53.110;8.468;2023-02-28T03:54:29;12.35;;;7.70;;
22064;SDS011;11197;53.110;8.468;2023-02-28T03:59:52;12.75;;;7.32;;
22064;SDS011;11197;53.110;8.468;2023-02-28T04:02:23;16.00;;;7.47;;
22064;SDS011;11197;53.110;8.468;2023-02-28T04:04:49;14.15;;;7.85;;
22064;SDS011;11197;53.110;8.468;2023-02-28T04:07:16;12.38;;;7.53;;
22064;SDS011;11197;53.110;8.468;2023-02-28T04:09:42;11.18;;;7.57;;
22064;SDS011;11197;53.110;8.468;2023-02-28T04:12:08;14.57;;;8.50;;
22064;SDS011;11197;53.110;8.468;2023-02-28T04:14:34;13.13;;;8.13;;
22064;SDS011;11197;53.110;8.468;2023-02-28T04:17:00;13.65;;;8.20;;
22064;SDS011;11197;53.110;8.468;2023-02-28T04:19:26;12.82;;;7.05;;
22064;SDS011;11197;53.110;8.468;2023-02-28T04:21:52;11.93;;;7.75;;
22064;SDS011;11197;53.110;8.468;2023-02-28T04:24:20;13.30;;;7.82;;
22064;SDS011;11197;53.110;8.468;2023-02-28T04:26:49;13.27;;;8.35;;
22064;SDS011;11197;53.110;8.468;2023-02-28T04:31:50;15.57;;;9.05;;
22064;SDS011;11197;53.110;8.468;2023-02-28T04:34:18;13.25;;;8.85;;
22064;SDS011;11197;53.110;8.468;2023-02-28T04:36:47;15.15;;;9.25;;
22064;SDS011;11197;53.110;8.468;2023-02-28T04:39:14;14.82;;;8.43;;
22064;SDS011;11197;53.110;8.468;2023-02-28T04:41:42;17.42;;;9.05;;
22064;SDS011;11197;53.110;8.468;2023-02-28T04:44:07;12.73;;;8.15;;
22064;SDS011;11197;53.110;8.468;2023-02-28T04:46:33;14.50;;;8.65;;
22064;SDS011;11197;53.110;8.468;2023-02-28T04:48:59;15.38;;;8.80;;
22064;SDS011;11197;53.110;8.468;2023-02-28T04:51:25;15.15;;;8.30;;
22064;SDS011;11197;53.110;8.468;2023-02-28T04:53:51;14.85;;;9.00;;
22064;SDS011;11197;53.110;8.468;2023-02-28T04:56:17;17.23;;;8.43;;
22064;SDS011;11197;53.110;8.468;2023-02-28T04:58:44;17.25;;;9.18;;
22064;SDS011;11197;53.110;8.468;2023-02-28T05:03:53;14.57;;;8.40;;
22064;SDS011;11197;53.110;8.468;2023-02-28T05:06:20;15.05;;;9.00;;
22064;SDS011;11197;53.110;8.468;2023-02-28T05:08:48;14.40;;;8.55;;
22064;SDS011;11197;53.110;8.468;2023-02-28T05:11:19;14.23;;;8.40;;
22064;SDS011;11197;53.110;8.468;2023-02-28T05:13:54;14.27;;;8.55;;
22064;SDS011;11197;53.110;8.468;2023-02-28T05:16:20;13.13;;;8.35;;
22064;SDS011;11197;53.110;8.468;2023-02-28T05:18:46;11.50;;;7.70;;
22064;SDS011;11197;53.110;8.468;2023-02-28T05:21:32;14.00;;;7.75;;
22064;SDS011;11197;53.110;8.468;2023-02-28T05:24:00;11.90;;;7.60;;
22064;SDS011;11197;53.110;8.468;2023-02-28T05:26:29;12.00;;;7.30;;
22064;SDS011;11197;53.110;8.468;2023-02-28T05:28:55;13.80;;;8.40;;
22064;SDS011;11197;53.110;8.468;2023-02-28T05:31:21;10.57;;;6.97;;
22064;SDS011;11197;53.110;8.468;2023-02-28T05:33:48;11.85;;;7.63;;
22064;SDS011;11197;53.110;8.468;2023-02-28T05:36:14;11.93;;;7.65;;
22064;SDS011;11197;53.110;8.468;2023-02-28T05:38:40;10.90;;;7.40;;
22064;SDS011;11197;53.110;8.468;2023-02-28T05:41:07;11.25;;;6.70;;
22064;SDS011;11197;53.110;8.468;2023-02-28T05:43:36;15.45;;;8.65;;
22064;SDS011;11197;53.110;8.468;2023-02-28T05:46:07;14.48;;;7.20;;
22064;SDS011;11197;53.110;8.468;2023-02-28T05:48:35;11.20;;;6.93;;
22064;SDS011;11197;53.110;8.468;2023-02-28T05:51:02;11.13;;;7.43;;
22064;SDS011;11197;53.110;8.468;2023-02-28T05:53:29;15.77;;;8.05;;
22064;SDS011;11197;53.110;8.468;2023-02-28T05:55:55;10.95;;;7.05;;
22064;SDS011;11197;53.110;8.468;2023-02-28T05:58:21;13.00;;;6.95;;
22064;SDS011;11197;53.110;8.468;2023-02-28T06:00:47;11.00;;;7.55;;
22064;SDS011;11197;53.110;8.468;2023-02-28T06:03:13;13.75;;;7.53;;
22064;SDS011;11197;53.110;8.468;2023-02-28T06:05:39;15.43;;;7.60;;
22064;SDS011;11197;53.110;8.468;2023-02-28T06:08:05;13.52;;;6.95;;
22064;SDS011;11197;53.110;8.468;2023-02-28T06:10:35;10.65;;;6.90;;
22064;SDS011;11197;53.110;8.468;2023-02-28T06:13:01;11.75;;;6.97;;
22064;SDS011;11197;53.110;8.468;2023-02-28T06:15:28;12.75;;;6.72;;
22064;SDS011;11197;53.110;8.468;2023-02-28T06:17:54;12.07;;;6.80;;
22064;SDS011;11197;53.110;8.468;2023-02-28T06:20:21;13.02;;;7.50;;
22064;SDS011;11197;53.110;8.468;2023-02-28T06:22:48;10.60;;;6.93;;
22064;SDS011;11197;53.110;8.468;2023-02-28T06:25:16;11.98;;;7.18;;
22064;SDS011;11197;53.110;8.468;2023-02-28T06:27:42;10.70;;;6.60;;
22064;SDS011;11197;53.110;8.468;2023-02-28T06:30:09;11.05;;;6.45;;
22064;SDS011;11197;53.110;8.468;2023-02-28T06:32:36;12.32;;;7.00;;
22064;SDS011;11197;53.110;8.468;2023-02-28T06:35:02;12.02;;;7.80;;
22064;SDS011;11197;53.110;8.468;2023-02-28T06:37:28;13.60;;;8.70;;
22064;SDS011;11197;53.110;8.468;2023-02-28T06:39:55;13.70;;;8.73;;
22064;SDS011;11197;53.110;8.468;2023-02-28T06:42:22;14.63;;;9.55;;
22064;SDS011;11197;53.110;8.468;2023-02-28T06:44:57;20.33;;;11.77;;
22064;SDS011;11197;53.110;8.468;2023-02-28T06:47:24;19.02;;;10.45;;
22064;SDS011;11197;53.110;8.468;2023-02-28T06:49:50;15.48;;;10.05;;
22064;SDS011;11197;53.110;8.468;2023-02-28T06:52:16;15.68;;;9.93;;
22064;SDS011;11197;53.110;8.468;2023-02-28T06:54:41;16.05;;;10.18;;
22064;SDS011;11197;53.110;8.468;2023-02-28T06:57:07;17.75;;;9.52;;
22064;SDS011;11197;53.110;8.468;2023-02-28T06:59:33;11.00;;;6.60;;
22064;SDS011;11197;53.110;8.468;2023-02-28T07:02:00;13.75;;;6.38;;
22064;SDS011;11197;53.110;8.468;2023-02-28T07:04:27;11.95;;;5.57;;
22064;SDS011;11197;53.110;8.468;2023-02-28T07:06:54;8.98;;;5.57;;
22064;SDS011;11197;53.110;8.468;2023-02-28T07:09:22;11.27;;;5.72;;
22064;SDS011;11197;53.110;8.468;2023-02-28T07:11:48;9.07;;;5.35;;
22064;SDS011;11197;53.110;8.468;2023-02-28T07:14:14;11.15;;;5.47;;
22064;SDS011;11197;53.110;8.468;2023-02-28T07:16:40;11.18;;;5.75;;
22064;SDS011;11197;53.110;8.468;2023-02-28T07:19:06;8.20;;;5.53;;
22064;SDS011;11197;53.110;8.468;2023-02-28T07:21:32;6.53;;;3.88;;
22064;SDS011;11197;53.110;8.468;2023-02-28T07:23:58;10.55;;;6.28;;
22064;SDS011;11197;53.110;8.468;2023-02-28T07:26:24;9.95;;;5.57;;
22064;SDS011;11197;53.110;8.468;2023-02-28T07:28:50;8.32;;;4.93;;
22064;SDS011;11197;53.110;8.468;2023-02-28T07:31:16;7.68;;;5.10;;
22064;SDS011;11197;53.110;8.468;2023-02-28T07:33:43;6.97;;;4.78;;
22064;SDS011;11197;53.110;8.468;2023-02-28T07:36:13;12.43;;;4.70;;
22064;SDS011;11197;53.110;8.468;2023-02-28T07:38:42;10.13;;;4.78;;
22064;SDS011;11197;53.110;8.468;2023-02-28T07:41:11;10.25;;;5.30;;
22064;SDS011;11197;53.110;8.468;2023-02-28T07:43:37;8.48;;;4.80;;
22064;SDS011;11197;53.110;8.468;2023-02-28T07:46:08;9.65;;;4.57;;
22064;SDS011;11197;53.110;8.468;2023-02-28T07:48:35;7.25;;;4.95;;
22064;SDS011;11197;53.110;8.468;2023-02-28T07:51:01;9.85;;;4.45;;
22064;SDS011;11197;53.110;8.468;2023-02-28T07:53:28;8.38;;;5.18;;
22064;SDS011;11197;53.110;8.468;2023-02-28T07:55:58;10.43;;;5.30;;
22064;SDS011;11197;53.110;8.468;2023-02-28T07:58:26;8.77;;;4.40;;
22064;SDS011;11197;53.110;8.468;2023-02-28T08:00:52;8.25;;;4.30;;
22064;SDS011;11197;53.110;8.468;2023-02-28T08:03:19;8.82;;;4.80;;
22064;SDS011;11197;53.110;8.468;2023-02-28T08:05:46;8.73;;;4.68;;
22064;SDS011;11197;53.110;8.468;2023-02-28T08:08:14;7.07;;;4.13;;
22064;SDS011;11197;53.110;8.468;2023-02-28T08:10:41;11.60;;;4.30;;
22064;SDS011;11197;53.110;8.468;2023-02-28T08:13:07;7.15;;;3.65;;
22064;SDS011;11197;53.110;8.468;2023-02-28T08:15:33;7.45;;;3.58;;
22064;SDS011;11197;53.110;8.468;2023-02-28T08:17:59;7.28;;;3.42;;
22064;SDS011;11197;53.110;8.468;2023-02-28T08:20:25;9.50;;;3.50;;
22064;SDS011;11197;53.110;8.468;2023-02-28T08:22:51;7.78;;;3.13;;
22064;SDS011;11197;53.110;8.468;2023-02-28T08:25:17;7.05;;;3.25;;
22064;SDS011;11197;53.110;8.468;2023-02-28T08:27:43;6.05;;;3.30;;
22064;SDS011;11197;53.110;8.468;2023-02-28T08:30:13;9.93;;;3.17;;
22064;SDS011;11197;53.110;8.468;2023-02-28T08:32:40;7.72;;;3.35;;
22064;SDS011;11197;53.110;8.468;2023-02-28T08:37:36;5.80;;;2.78;;
22064;SDS011;11197;53.110;8.468;2023-02-28T08:40:02;5.63;;;3.00;;
22064;SDS011;11197;53.110;8.468;2023-02-28T08:42:29;5.80;;;3.10;;
22064;SDS011;11197;53.110;8.468;2023-02-28T08:44:55;5.70;;;3.15;;
22064;SDS011;11197;53.110;8.468;2023-02-28T08:47:21;5.22;;;2.97;;
22064;SDS011;11197;53.110;8.468;2023-02-28T08:49:47;7.07;;;3.25;;
22064;SDS011;11197;53.110;8.468;2023-02-28T08:52:13;6.07;;;2.72;;
22064;SDS011;11197;53.110;8.468;2023-02-28T08:54:42;6.78;;;2.70;;
22064;SDS011;11197;53.110;8.468;2023-02-28T08:57:07;4.43;;;2.30;;
22064;SDS011;11197;53.110;8.468;2023-02-28T08:59:33;5.18;;;2.80;;
22064;SDS011;11197;53.110;8.468;2023-02-28T09:01:59;5.35;;;2.80;;
22064;SDS011;11197;53.110;8.468;2023-02-28T09:04:25;5.10;;;2.50;;
22064;SDS011;11197;53.110;8.468;2023-02-28T09:06:51;6.03;;;2.53;;
22064;SDS011;11197;53.110;8.468;2023-02-28T09:09:18;3.75;;;2.15;;
22064;SDS011;11197;53.110;8.468;2023-02-28T09:11:44;4.93;;;2.17;;
22064;SDS011;11197;53.110;8.468;2023-02-28T09:14:09;3.90;;;2.17;;
22064;SDS011;11197;53.110;8.468;2023-02-28T09:16:35;3.58;;;1.70;;
22064;SDS011;11197;53.110;8.468;2023-02-28T09:19:01;3.45;;;2.10;;
22064;SDS011;11197;53.110;8.468;2023-02-28T09:21:27;4.75;;;1.80;;
22064;SDS011;11197;53.110;8.468;2023-02-28T09:23:53;4.50;;;1.70;;
22064;SDS011;11197;53.110;8.468;2023-02-28T09:26:23;5.07;;;2.10;;
22064;SDS011;11197;53.110;8.468;2023-02-28T09:28:51;4.25;;;1.70;;
22064;SDS011;11197;53.110;8.468;2023-02-28T09:31:19;2.25;;;1.50;;
22064;SDS011;11197;53.110;8.468;2023-02-28T09:33:50;4.07;;;1.92;;
22064;SDS011;11197;53.110;8.468;2023-02-28T09:36:18;4.57;;;2.00;;
22064;SDS011;11197;53.110;8.468;2023-02-28T09:38:44;4.60;;;1.70;;
22064;SDS011;11197;53.110;8.468;2023-02-28T09:41:22;4.28;;;1.70;;
22064;SDS011;11197;53.110;8.468;2023-02-28T09:43:52;4.88;;;1.90;;
22064;SDS011;11197;53.110;8.468;2023-02-28T09:46:43;4.93;;;1.90;;
22064;SDS011;11197;53.110;8.468;2023-02-28T09:49:16;3.70;;;1.60;;
22064;SDS011;11197;53.110;8.468;2023-02-28T09:54:22;4.78;;;1.90;;
22064;SDS011;11197;53.110;8.468;2023-02-28T09:57:04;3.17;;;1.45;;
22064;SDS011;11197;53.110;8.468;2023-02-28T10:05:11;4.32;;;1.73;;
22064;SDS011;11197;53.110;8.468;2023-02-28T10:10:51;3.30;;;1.70;;
22064;SDS011;11197;53.110;8.468;2023-02-28T10:16:38;3.88;;;1.80;;
22064;SDS011;11197;53.110;8.468;2023-02-28T10:19:26;4.70;;;1.75;;
22064;SDS011;11197;53.110;8.468;2023-02-28T10:22:08;4.45;;;1.60;;
22064;SDS011;11197;53.110;8.468;2023-02-28T10:24:47;3.40;;;1.70;;
22064;SDS011;11197;53.110;8.468;2023-02-28T10:29:46;3.70;;;1.85;;
22064;SDS011;11197;53.110;8.468;2023-02-28T10:34:43;4.00;;;1.90;;
22064;SDS011;11197;53.110;8.468;2023-02-28T10:37:10;4.85;;;2.03;;
22064;SDS011;11197;53.110;8.468;2023-02-28T10:39:44;4.07;;;1.95;;
22064;SDS011;11197;53.110;8.468;2023-02-28T10:42:22;4.38;;;2.13;;
22064;SDS011;11197;53.110;8.468;2023-02-28T10:45:12;4.75;;;1.80;;
22064;SDS011;11197;53.110;8.468;2023-02-28T10:47:39;4.97;;;2.20;;
22064;SDS011;11197;53.110;8.468;2023-02-28T10:56:03;4.72;;;1.88;;
22064;SDS011;11197;53.110;8.468;2023-02-28T11:03:55;3.40;;;1.90;;
22064;SDS011;11197;53.110;8.468;2023-02-28T11:06:26;4.78;;;1.90;;
22064;SDS011;11197;53.110;8.468;2023-02-28T11:11:46;3.40;;;1.60;;
22064;SDS011;11197;53.110;8.468;2023-02-28T11:14:19;5.95;;;1.75;;
22064;SDS011;11197;53.110;8.468;2023-02-28T11:16:49;3.28;;;1.75;;
22064;SDS011;11197;53.110;8.468;2023-02-28T11:19:26;3.70;;;1.90;;
22064;SDS011;11197;53.110;8.468;2023-02-28T11:21:59;6.25;;;1.65;;
22064;SDS011;11197;53.110;8.468;2023-02-28T11:24:28;6.10;;;1.73;;
22064;SDS011;11197;53.110;8.468;2023-02-28T11:26:57;3.97;;;1.83;;
22064;SDS011;11197;53.110;8.468;2023-02-28T11:29:27;5.05;;;1.77;;
22064;SDS011;11197;53.110;8.468;2023-02-28T11:34:27;3.15;;;1.80;;
22064;SDS011;11197;53.110;8.468;2023-02-28T11:36:56;3.05;;;1.90;;
22064;SDS011;11197;53.110;8.468;2023-02-28T11:39:23;3.95;;;1.75;;
22064;SDS011;11197;53.110;8.468;2023-02-28T11:41:58;5.30;;;2.10;;
22064;SDS011;11197;53.110;8.468;2023-02-28T11:53:50;3.30;;;1.35;;
22064;SDS011;11197;53.110;8.468;2023-02-28T11:55:59;3.33;;;1.60;;
22064;SDS011;11197;53.110;8.468;2023-02-28T11:58:37;3.83;;;1.63;;
22064;SDS011;11197;53.110;8.468;2023-02-28T12:08:46;3.53;;;1.70;;
22064;SDS011;11197;53.110;8.468;2023-02-28T12:16:37;3.22;;;1.42;;
22064;SDS011;11197;53.110;8.468;2023-02-28T12:27:21;4.72;;;1.92;;
22064;SDS011;11197;53.110;8.468;2023-02-28T12:29:54;3.60;;;1.80;;
22064;SDS011;11197;53.110;8.468;2023-02-28T12:32:30;3.33;;;1.70;;
22064;SDS011;11197;53.110;8.468;2023-02-28T12:37:40;4.72;;;1.80;;
22064;SDS011;11197;53.110;8.468;2023-02-28T12:40:20;3.30;;;1.75;;
22064;SDS011;11197;53.110;8.468;2023-02-28T12:45:25;3.63;;;1.65;;
22064;SDS011;11197;53.110;8.468;2023-02-28T12:48:04;3.38;;;1.92;;
22064;SDS011;11197;53.110;8.468;2023-02-28T12:50:32;3.45;;;1.98;;
22064;SDS011;11197;53.110;8.468;2023-02-28T13:11:31;4.57;;;1.90;;
22064;SDS011;11197;53.110;8.468;2023-02-28T13:14:24;3.53;;;1.92;;
22064;SDS011;11197;53.110;8.468;2023-02-28T13:19:34;4.45;;;2.30;;
22064;SDS011;11197;53.110;8.468;2023-02-28T13:22:40;5.43;;;2.10;;
22064;SDS011;11197;53.110;8.468;2023-02-28T13:27:59;5.05;;;2.20;;
22064;SDS011;11197;53.110;8.468;2023-02-28T14:06:26;3.20;;;1.70;;
22064;SDS011;11197;53.110;8.468;2023-02-28T14:08:59;3.80;;;1.83;;
22064;SDS011;11197;53.110;8.468;2023-02-28T14:11:39;7.90;;;1.92;;
22064;SDS011;11197;53.110;8.468;2023-02-28T14:14:08;4.50;;;1.90;;
22064;SDS011;11197;53.110;8.468;2023-02-28T14:16:55;5.65;;;2.10;;
22064;SDS011;11197;53.110;8.468;2023-02-28T14:19:29;6.30;;;2.20;;
22064;SDS011;11197;53.110;8.468;2023-02-28T14:35:47;5.22;;;2.00;;
22064;SDS011;11197;53.110;8.468;2023-02-28T14:38:23;4.30;;;2.22;;
22064;SDS011;11197;53.110;8.468;2023-02-28T14:40:54;5.03;;;1.60;;
22064;SDS011;11197;53.110;8.468;2023-02-28T14:43:24;3.15;;;1.80;;
22064;SDS011;11197;53.110;8.468;2023-02-28T14:45:55;3.08;;;1.63;;
22064;SDS011;11197;53.110;8.468;2023-02-28T14:48:24;3.67;;;1.70;;
22064;SDS011;11197;53.110;8.468;2023-02-28T14:50:53;7.65;;;3.00;;
22064;SDS011;11197;53.110;8.468;2023-02-28T14:53:22;4.40;;;1.88;;
22064;SDS011;11197;53.110;8.468;2023-02-28T14:55:51;4.17;;;2.00;;
22064;SDS011;11197;53.110;8.468;2023-02-28T14:58:21;15.25;;;7.35;;
22064;SDS011;11197;53.110;8.468;2023-02-28T15:00:52;4.15;;;1.77;;
22064;SDS011;11197;53.110;8.468;2023-02-28T15:03:21;4.07;;;1.98;;
22064;SDS011;11197;53.110;8.468;2023-02-28T15:05:57;4.47;;;1.90;;
22064;SDS011;11197;53.110;8.468;2023-02-28T15:08:26;4.53;;;1.90;;
22064;SDS011;11197;53.110;8.468;2023-02-28T15:11:01;2.90;;;1.60;;
22064;SDS011;11197;53.110;8.468;2023-02-28T15:13:52;3.95;;;1.80;;
22064;SDS011;11197;53.110;8.468;2023-02-28T15:18:53;5.10;;;1.80;;
22064;SDS011;11197;53.110;8.468;2023-02-28T15:21:32;4.10;;;1.75;;
22064;SDS011;11197;53.110;8.468;2023-02-28T15:24:14;3.00;;;1.63;;
22064;SDS011;11197;53.110;8.468;2023-02-28T15:26:45;3.00;;;1.65;;
22064;SDS011;11197;53.110;8.468;2023-02-28T15:29:16;4.68;;;1.85;;
22064;SDS011;11197;53.110;8.468;2023-02-28T15:34:47;4.88;;;2.17;;
22064;SDS011;11197;53.110;8.468;2023-02-28T15:39:53;4.18;;;1.85;;
22064;SDS011;11197;53.110;8.468;2023-02-28T15:42:20;3.50;;;1.80;;
22064;SDS011;11197;53.110;8.468;2023-02-28T15:44:48;4.57;;;1.90;;
22064;SDS011;11197;53.110;8.468;2023-02-28T15:52:21;4.88;;;2.10;;
22064;SDS011;11197;53.110;8.468;2023-02-28T15:54:54;3.47;;;1.90;;
22064;SDS011;11197;53.110;8.468;2023-02-28T15:57:24;3.97;;;1.85;;
22064;SDS011;11197;53.110;8.468;2023-02-28T15:59:55;3.55;;;1.80;;
22064;SDS011;11197;53.110;8.468;2023-02-28T16:02:32;3.45;;;1.70;;
22064;SDS011;11197;53.110;8.468;2023-02-28T16:05:02;3.35;;;1.63;;
22064;SDS011;11197;53.110;8.468;2023-02-28T16:07:35;4.28;;;1.98;;
22064;SDS011;11197;53.110;8.468;2023-02-28T16:10:02;3.35;;;1.90;;
22064;SDS011;11197;53.110;8.468;2023-02-28T16:12:30;4.03;;;1.75;;
22064;SDS011;11197;53.110;8.468;2023-02-28T16:15:00;4.22;;;1.90;;
22064;SDS011;11197;53.110;8.468;2023-02-28T16:17:31;4.20;;;1.65;;
22064;SDS011;11197;53.110;8.468;2023-02-28T16:19:59;3.72;;;1.80;;
22064;SDS011;11197;53.110;8.468;2023-02-28T16:22:25;4.90;;;2.20;;
22064;SDS011;11197;53.110;8.468;2023-02-28T16:24:51;9.98;;;1.80;;
22064;SDS011;11197;53.110;8.468;2023-02-28T16:27:30;3.58;;;1.80;;
22064;SDS011;11197;53.110;8.468;2023-02-28T16:30:00;4.82;;;1.85;;
22064;SDS011;11197;53.110;8.468;2023-02-28T16:32:26;3.58;;;1.65;;
22064;SDS011;11197;53.110;8.468;2023-02-28T16:35:00;5.60;;;1.80;;
22064;SDS011;11197;53.110;8.468;2023-02-28T16:37:27;4.28;;;1.83;;
22064;SDS011;11197;53.110;8.468;2023-02-28T16:39:53;3.83;;;1.58;;
22064;SDS011;11197;53.110;8.468;2023-02-28T16:42:27;4.53;;;1.85;;
22064;SDS011;11197;53.110;8.468;2023-02-28T16:44:54;3.28;;;1.83;;
22064;SDS011;11197;53.110;8.468;2023-02-28T16:47:21;5.00;;;1.88;;
22064;SDS011;11197;53.110;8.468;2023-02-28T16:49:47;2.95;;;1.80;;
22064;SDS011;11197;53.110;8.468;2023-02-28T16:52:13;3.20;;;1.80;;
22064;SDS011;11197;53.110;8.468;2023-02-28T16:54:40;4.10;;;2.20;;
22064;SDS011;11197;53.110;8.468;2023-02-28T16:57:10;3.67;;;2.00;;
22064;SDS011;11197;53.110;8.468;2023-02-28T16:59:45;4.10;;;1.88;;
22064;SDS011;11197;53.110;8.468;2023-02-28T17:02:12;3.97;;;2.00;;
22064;SDS011;11197;53.110;8.468;2023-02-28T17:04:40;4.10;;;2.33;;
22064;SDS011;11197;53.110;8.468;2023-02-28T17:07:10;7.22;;;3.28;;
22064;SDS011;11197;53.110;8.468;2023-02-28T17:09:38;6.40;;;3.20;;
22064;SDS011;11197;53.110;8.468;2023-02-28T17:12:04;7.53;;;3.85;;
22064;SDS011;11197;53.110;8.468;2023-02-28T17:14:30;9.25;;;4.30;;
22064;SDS011;11197;53.110;8.468;2023-02-28T17:16:56;9.13;;;4.53;;
22064;SDS011;11197;53.110;8.468;2023-02-28T17:19:22;10.07;;;5.30;;
22064;SDS011;11197;53.110;8.468;2023-02-28T17:21:48;10.98;;;5.53;;
22064;SDS011;11197;53.110;8.468;2023-02-28T17:24:17;7.00;;;4.20;;
22064;SDS011;11197;53.110;8.468;2023-02-28T17:26:42;9.82;;;4.10;;
22064;SDS011;11197;53.110;8.468;2023-02-28T17:29:16;9.32;;;3.85;;
22064;SDS011;11197;53.110;8.468;2023-02-28T17:31:44;7.93;;;3.83;;
22064;SDS011;11197;53.110;8.468;2023-02-28T17:34:10;9.48;;;3.30;;
22064;SDS011;11197;53.110;8.468;2023-02-28T17:36:36;8.07;;;3.03;;
22064;SDS011;11197;53.110;8.468;2023-02-28T17:39:03;5.10;;;3.35;;
22064;SDS011;11197;53.110;8.468;2023-02-28T17:41:34;8.73;;;3.58;;
22064;SDS011;11197;53.110;8.468;2023-02-28T17:44:00;9.40;;;3.90;;
22064;SDS011;11197;53.110;8.468;2023-02-28T17:46:26;9.55;;;3.72;;
22064;SDS011;11197;53.110;8.468;2023-02-28T17:48:53;11.55;;;3.90;;
22064;SDS011;11197;53.110;8.468;2023-02-28T17:51:20;6.53;;;3.75;;
22064;SDS011;11197;53.110;8.468;2023-02-28T17:53:47;8.32;;;4.10;;
22064;SDS011;11197;53.110;8.468;2023-02-28T17:56:18;7.75;;;3.95;;
22064;SDS011;11197;53.110;8.468;2023-02-28T17:58:46;8.27;;;3.55;;
22064;SDS011;11197;53.110;8.468;2023-02-28T18:01:16;7.43;;;3.50;;
22064;SDS011;11197;53.110;8.468;2023-02-28T18:03:42;8.48;;;3.90;;
22064;SDS011;11197;53.110;8.468;2023-02-28T18:06:41;7.07;;;4.15;;
22064;SDS011;11197;53.110;8.468;2023-02-28T18:09:02;9.07;;;4.25;;
22064;SDS011;11197;53.110;8.468;2023-02-28T18:11:28;11.25;;;4.40;;
22064;SDS011;11197;53.110;8.468;2023-02-28T18:14:06;9.68;;;4.47;;